createdAt,value
2022-09-02T00:01:39.711Z,19.30
2022-09-02T00:04:19.737Z,19.30
2022-09-02T00:06:49.309Z,19.30
2022-09-02T00:09:19.790Z,19.20
2022-09-02T00:11:49.106Z,19.20
2022-09-02T00:14:25.007Z,19.10
2022-09-02T00:16:52.535Z,19.10
2022-09-02T00:19:25.041Z,19.20
2022-09-02T00:21:54.281Z,19.10
2022-09-02T00:24:24.845Z,19.10
2022-09-02T00:26:51.611Z,19.20
2022-09-02T00:29:24.028Z,19.10
2022-09-02T00:31:51.209Z,19.00
2022-09-02T00:34:18.113Z,19.00
2022-09-02T00:36:46.139Z,19.00
2022-09-02T00:39:13.275Z,18.90
2022-09-02T00:41:42.842Z,18.90
2022-09-02T00:44:13.511Z,18.80
2022-09-02T00:46:40.642Z,18.70
2022-09-02T00:49:16.631Z,18.70
2022-09-02T00:51:48.659Z,18.70
2022-09-02T00:54:20.089Z,18.70
2022-09-02T00:56:48.179Z,18.70
2022-09-02T00:59:45.139Z,18.80
2022-09-02T01:02:12.310Z,18.90
2022-09-02T01:04:43.351Z,18.90
2022-09-02T01:07:10.191Z,18.90
2022-09-02T01:09:37.981Z,18.80
2022-09-02T01:12:05.592Z,18.80
2022-09-02T01:14:32.444Z,18.90
2022-09-02T01:17:01.521Z,18.80
2022-09-02T01:19:40.374Z,18.90
2022-09-02T01:22:17.983Z,18.90
2022-09-02T01:24:44.903Z,18.80
2022-09-02T01:27:16.547Z,18.80
2022-09-02T01:29:44.414Z,18.80
2022-09-02T01:32:11.945Z,18.80
2022-09-02T01:34:38.910Z,18.80
2022-09-02T01:37:05.822Z,18.80
2022-09-02T01:39:32.665Z,18.70
2022-09-02T01:42:00.720Z,18.70
2022-09-02T01:44:27.662Z,18.80
2022-09-02T01:46:55.022Z,18.80
2022-09-02T01:49:23.071Z,18.70
2022-09-02T01:51:49.962Z,18.70
2022-09-02T01:54:16.744Z,18.60
2022-09-02T01:56:43.561Z,18.60
2022-09-02T01:59:11.792Z,18.50
2022-09-02T02:01:38.695Z,18.50
2022-09-02T02:04:08.306Z,18.40
2022-09-02T02:06:43.604Z,18.40
2022-09-02T02:09:12.463Z,18.40
2022-09-02T02:11:39.895Z,18.30
2022-09-02T02:14:06.880Z,18.30
2022-09-02T02:16:33.845Z,18.40
2022-09-02T02:19:01.420Z,18.30
2022-09-02T02:21:28.349Z,18.30
2022-09-02T02:23:55.248Z,18.30
2022-09-02T02:26:22.021Z,18.30
2022-09-02T02:28:49.494Z,18.30
2022-09-02T02:31:16.364Z,18.30
2022-09-02T02:33:43.179Z,18.30
2022-09-02T02:36:10.458Z,18.30
2022-09-02T02:38:38.999Z,18.30
2022-09-02T02:41:06.598Z,18.30
2022-09-02T02:43:34.843Z,18.30
2022-09-02T02:46:01.973Z,18.30
2022-09-02T02:48:29.069Z,18.30
2022-09-02T02:50:56.059Z,18.30
2022-09-02T02:53:23.296Z,18.40
2022-09-02T02:55:51.401Z,18.40
2022-09-02T02:58:18.674Z,18.40
2022-09-02T03:00:46.560Z,18.30
2022-09-02T03:03:14.620Z,18.30
2022-09-02T03:05:41.532Z,18.30
2022-09-02T03:08:10.465Z,18.30
2022-09-02T03:10:38.677Z,18.30
2022-09-02T03:13:06.064Z,18.30
2022-09-02T03:15:33.978Z,18.30
2022-09-02T03:18:00.888Z,18.40
2022-09-02T03:20:28.170Z,18.40
2022-09-02T03:22:56.958Z,18.50
2022-09-02T03:25:25.054Z,18.50
2022-09-02T03:27:52.491Z,18.40
2022-09-02T03:30:22.320Z,18.50
2022-09-02T03:32:50.802Z,18.50
2022-09-02T03:35:20.181Z,18.50
2022-09-02T03:37:48.401Z,18.50
2022-09-02T03:40:18.430Z,18.50
2022-09-02T03:42:47.339Z,18.50
2022-09-02T03:45:17.809Z,18.50
2022-09-02T03:47:54.322Z,18.50
2022-09-02T03:50:31.428Z,18.50
2022-09-02T03:52:59.616Z,18.60
2022-09-02T03:55:27.158Z,18.50
2022-09-02T03:57:54.614Z,18.50
2022-09-02T04:00:25.764Z,18.40
2022-09-02T04:02:53.488Z,18.50
2022-09-02T04:05:20.471Z,18.50
2022-09-02T04:07:47.326Z,18.60
2022-09-02T04:10:14.909Z,18.60
2022-09-02T04:12:41.910Z,18.60
2022-09-02T04:15:10.842Z,18.60
2022-09-02T04:17:40.012Z,18.60
2022-09-02T04:20:09.709Z,18.60
2022-09-02T04:22:36.878Z,18.60
2022-09-02T04:25:04.534Z,18.60
2022-09-02T04:27:31.789Z,18.60
2022-09-02T04:29:59.482Z,18.50
2022-09-02T04:32:26.640Z,18.40
2022-09-02T04:34:53.638Z,18.40
2022-09-02T04:37:20.492Z,18.50
2022-09-02T04:39:47.268Z,18.50
2022-09-02T04:42:14.139Z,18.50
2022-09-02T04:44:41.064Z,18.50
2022-09-02T04:47:08.252Z,18.50
2022-09-02T04:49:35.312Z,18.50
2022-09-02T04:52:02.192Z,18.50
2022-09-02T04:54:29.131Z,18.40
2022-09-02T04:56:56.098Z,18.40
2022-09-02T04:59:22.839Z,18.30
2022-09-02T05:01:51.095Z,18.40
2022-09-02T05:04:18.132Z,18.30
2022-09-02T05:06:47.332Z,18.20
2022-09-02T05:09:14.302Z,18.20
2022-09-02T05:11:41.856Z,18.20
2022-09-02T05:14:08.805Z,18.20
2022-09-02T05:16:38.115Z,18.20
2022-09-02T05:19:08.563Z,18.20
2022-09-02T05:21:39.246Z,18.20
2022-09-02T05:24:06.420Z,18.30
2022-09-02T05:26:36.020Z,18.30
2022-09-02T05:29:07.057Z,18.30
2022-09-02T05:31:34.537Z,18.30
2022-09-02T05:34:01.575Z,18.20
2022-09-02T05:36:28.453Z,18.30
2022-09-02T05:38:55.327Z,18.40
2022-09-02T05:41:24.206Z,18.40
2022-09-02T05:43:52.828Z,18.40
2022-09-02T05:46:22.380Z,18.40
2022-09-02T05:49:22.994Z,18.40
2022-09-02T05:52:00.200Z,18.50
2022-09-02T05:54:30.233Z,18.40
2022-09-02T05:56:59.974Z,18.60
2022-09-02T05:59:29.422Z,18.60
2022-09-02T06:01:57.347Z,18.60
2022-09-02T06:04:24.612Z,18.60
2022-09-02T06:06:51.591Z,18.60
2022-09-02T06:09:21.845Z,18.70
2022-09-02T06:11:50.122Z,18.70
2022-09-02T06:14:21.817Z,18.80
2022-09-02T06:16:50.517Z,18.80
2022-09-02T06:19:20.242Z,18.80
2022-09-02T06:21:49.109Z,18.90
2022-09-02T06:24:16.406Z,18.90
2022-09-02T06:26:43.516Z,18.90
2022-09-02T06:29:11.763Z,18.90
2022-09-02T06:31:44.872Z,18.90
2022-09-02T06:34:13.831Z,18.90
2022-09-02T06:36:42.868Z,18.90
2022-09-02T06:39:12.458Z,18.90
2022-09-02T06:41:40.689Z,19.00
2022-09-02T06:44:09.452Z,19.10
2022-09-02T06:46:39.637Z,19.10
2022-09-02T06:49:08.655Z,19.20
2022-09-02T06:51:41.962Z,19.30
2022-09-02T06:54:14.231Z,19.40
2022-09-02T06:56:45.937Z,19.40
2022-09-02T06:59:16.592Z,19.40
2022-09-02T07:01:45.052Z,19.60
2022-09-02T07:04:30.546Z,19.70
2022-09-02T07:06:57.919Z,19.80
2022-09-02T07:09:31.478Z,19.90
2022-09-02T07:12:04.983Z,20.00
2022-09-02T07:14:37.252Z,20.10
2022-09-02T07:17:04.343Z,20.20
2022-09-02T07:19:31.686Z,20.40
2022-09-02T07:21:58.833Z,20.40
2022-09-02T07:24:25.912Z,20.50
2022-09-02T07:26:55.356Z,20.60
2022-09-02T07:29:23.680Z,20.70
2022-09-02T07:31:51.183Z,20.90
2022-09-02T07:34:19.237Z,21.10
2022-09-02T07:36:46.451Z,21.20
2022-09-02T07:39:14.768Z,21.40
2022-09-02T07:41:43.640Z,21.60
2022-09-02T07:44:11.120Z,21.70
2022-09-02T07:46:39.036Z,21.80
2022-09-02T07:49:09.621Z,22.00
2022-09-02T07:51:39.657Z,22.10
2022-09-02T07:54:07.744Z,22.20
2022-09-02T07:56:34.654Z,22.30
2022-09-02T07:59:01.947Z,22.40
2022-09-02T08:01:29.606Z,22.50
2022-09-02T08:03:59.433Z,22.60
2022-09-02T08:06:34.702Z,22.60
2022-09-02T08:09:04.995Z,22.70
2022-09-02T08:11:32.742Z,22.70
2022-09-02T08:14:00.986Z,22.80
2022-09-02T08:16:29.176Z,22.90
2022-09-02T08:18:56.288Z,23.00
2022-09-02T08:21:23.460Z,23.10
2022-09-02T08:23:51.324Z,23.10
2022-09-02T08:26:19.161Z,23.10
2022-09-02T08:28:46.216Z,23.20
2022-09-02T08:31:13.713Z,23.10
2022-09-02T08:33:41.702Z,23.10
2022-09-02T08:36:11.795Z,23.20
2022-09-02T08:38:38.647Z,23.30
2022-09-02T08:41:26.101Z,23.30
2022-09-02T08:43:59.998Z,23.30
2022-09-02T08:46:31.366Z,23.40
2022-09-02T08:49:27.859Z,23.40
2022-09-02T08:52:01.620Z,23.40
2022-09-02T08:54:43.889Z,23.40
2022-09-02T08:57:11.561Z,23.40
2022-09-02T09:02:26.330Z,23.30
2022-09-02T09:05:29.699Z,23.40
2022-09-02T09:08:15.814Z,23.40
2022-09-02T09:10:58.920Z,23.40
2022-09-02T09:14:02.380Z,23.40
2022-09-02T09:16:40.100Z,23.40
2022-09-02T09:19:16.760Z,23.40
2022-09-02T09:21:44.549Z,23.40
2022-09-02T09:24:21.232Z,23.40
2022-09-02T09:26:48.094Z,23.50
2022-09-02T09:29:14.999Z,23.50
2022-09-02T09:31:43.911Z,23.50
2022-09-02T09:34:14.477Z,23.50
2022-09-02T09:36:41.232Z,23.50
2022-09-02T09:39:21.911Z,23.50
2022-09-02T09:41:49.808Z,23.50
2022-09-02T09:44:38.854Z,23.50
2022-09-02T09:47:20.813Z,23.50
2022-09-02T09:49:51.933Z,23.50
2022-09-02T09:52:28.117Z,23.50
2022-09-02T09:55:13.192Z,23.50
2022-09-02T09:57:44.727Z,23.40
2022-09-02T10:00:32.108Z,23.30
2022-09-02T10:03:01.872Z,23.30
2022-09-02T10:05:36.717Z,23.30
2022-09-02T10:08:17.936Z,23.30
2022-09-02T10:11:08.495Z,23.30
2022-09-02T10:13:38.097Z,23.30
2022-09-02T10:16:52.631Z,23.30
2022-09-02T10:19:38.285Z,23.40
2022-09-02T10:22:37.907Z,23.40
2022-09-02T10:25:29.765Z,23.40
2022-09-02T10:28:19.895Z,23.40
2022-09-02T10:31:13.807Z,23.30
2022-09-02T10:33:54.505Z,23.30
2022-09-02T10:36:47.725Z,23.40
2022-09-02T10:39:37.194Z,23.50
2022-09-02T10:42:16.787Z,23.50
2022-09-02T10:45:07.986Z,23.50
2022-09-02T10:47:40.600Z,23.50
2022-09-02T10:50:14.035Z,23.50
2022-09-02T10:52:40.924Z,23.50
2022-09-02T10:55:17.708Z,23.50
2022-09-02T10:58:01.989Z,23.50
2022-09-02T11:00:31.144Z,23.50
2022-09-02T11:03:15.826Z,23.60
2022-09-02T11:05:52.041Z,23.60
2022-09-02T11:08:30.904Z,23.50
2022-09-02T11:11:21.658Z,23.50
2022-09-02T11:14:10.204Z,23.50
2022-09-02T11:16:49.155Z,23.50
2022-09-02T11:19:29.563Z,23.50
2022-09-02T11:22:08.883Z,23.60
2022-09-02T11:24:46.448Z,23.60
2022-09-02T11:27:32.484Z,23.70
2022-09-02T11:30:21.617Z,23.70
2022-09-02T11:33:01.461Z,23.70
2022-09-02T11:35:33.899Z,23.70
2022-09-02T11:38:05.484Z,23.70
2022-09-02T11:40:36.566Z,23.70
2022-09-02T11:43:24.258Z,23.80
2022-09-02T11:46:06.437Z,23.80
2022-09-02T11:48:36.388Z,23.80
2022-09-02T11:51:29.136Z,23.80
2022-09-02T11:53:57.397Z,23.80
2022-09-02T11:56:39.797Z,23.90
2022-09-02T11:59:08.563Z,23.90
2022-09-02T12:01:48.179Z,25.20
2022-09-02T12:07:13.797Z,24.00
2022-09-02T12:09:56.675Z,24.00
2022-09-02T12:12:39.093Z,24.10
2022-09-02T12:15:06.644Z,24.10
2022-09-02T12:17:52.057Z,24.10
2022-09-02T12:20:38.455Z,24.10
2022-09-02T12:23:07.416Z,24.10
2022-09-02T12:25:38.316Z,24.10
2022-09-02T12:28:29.254Z,24.10
2022-09-02T12:31:02.841Z,24.10
2022-09-02T12:33:30.758Z,24.10
2022-09-02T12:35:59.718Z,24.20
2022-09-02T12:38:27.852Z,24.20
2022-09-02T12:41:05.434Z,24.20
2022-09-02T12:43:44.567Z,24.10
2022-09-02T12:46:36.543Z,24.20
2022-09-02T12:49:29.916Z,24.20
2022-09-02T12:52:02.432Z,24.30
2022-09-02T12:54:55.474Z,24.30
2022-09-02T12:57:42.673Z,24.40
2022-09-02T13:00:31.385Z,24.40
2022-09-02T13:03:36.391Z,24.30
2022-09-02T13:06:20.684Z,24.40
2022-09-02T13:09:31.607Z,24.40
2022-09-02T13:12:27.826Z,24.40
2022-09-02T13:15:01.504Z,24.40
2022-09-02T13:17:48.698Z,25.10
2022-09-02T13:20:27.990Z,24.50
2022-09-02T13:23:10.149Z,24.50
2022-09-02T13:25:44.004Z,24.50
2022-09-02T13:28:41.296Z,24.40
2022-09-02T13:31:24.162Z,24.50
2022-09-02T13:34:03.661Z,24.50
2022-09-02T13:36:43.307Z,24.50
2022-09-02T13:39:16.296Z,24.50
2022-09-02T13:41:43.227Z,24.50
2022-09-02T13:44:13.163Z,24.50
2022-09-02T13:46:45.418Z,24.50
2022-09-02T13:49:20.445Z,24.50
2022-09-02T13:51:47.989Z,24.60
2022-09-02T13:54:23.460Z,24.50
2022-09-02T13:56:50.569Z,24.50
2022-09-02T13:59:32.267Z,24.60
2022-09-02T14:01:59.350Z,24.60
2022-09-02T14:04:27.744Z,24.60
2022-09-02T14:06:54.844Z,24.70
2022-09-02T14:09:26.884Z,24.80
2022-09-02T14:11:54.575Z,24.80
2022-09-02T14:14:24.289Z,24.80
2022-09-02T14:16:52.615Z,24.80
2022-09-02T14:19:22.326Z,24.80
2022-09-02T14:21:58.386Z,24.90
2022-09-02T14:24:28.004Z,24.90
2022-09-02T14:26:59.784Z,24.90
2022-09-02T14:29:30.039Z,24.90
2022-09-02T14:32:26.454Z,24.90
2022-09-02T14:35:16.388Z,24.80
2022-09-02T14:37:50.980Z,24.90
2022-09-02T14:40:19.684Z,24.90
2022-09-02T14:42:57.249Z,24.90
2022-09-02T14:45:35.206Z,24.80
2022-09-02T14:48:11.175Z,24.80
2022-09-02T14:50:39.748Z,24.90
2022-09-02T14:53:09.138Z,24.90
2022-09-02T14:55:46.319Z,24.90
2022-09-02T14:58:13.484Z,24.90
2022-09-02T15:00:40.440Z,24.90
2022-09-02T15:03:07.669Z,24.90
2022-09-02T15:05:34.548Z,24.90
2022-09-02T15:08:01.442Z,24.90
2022-09-02T15:10:28.209Z,24.90
2022-09-02T15:12:57.532Z,24.90
2022-09-02T15:15:25.668Z,24.90
2022-09-02T15:17:52.640Z,24.90
2022-09-02T15:20:21.900Z,24.90
2022-09-02T15:22:49.001Z,25.00
2022-09-02T15:25:15.898Z,24.90
2022-09-02T15:27:42.699Z,24.90
2022-09-02T15:30:10.240Z,24.90
2022-09-02T15:32:38.298Z,24.90
2022-09-02T15:35:07.004Z,24.80
2022-09-02T15:37:38.228Z,24.80
2022-09-02T15:40:08.027Z,24.80
2022-09-02T15:42:36.658Z,24.80
2022-09-02T15:45:05.656Z,24.80
2022-09-02T15:47:35.773Z,24.80
2022-09-02T15:50:02.690Z,24.80
2022-09-02T15:52:29.519Z,24.70
2022-09-02T15:54:56.553Z,24.70
2022-09-02T15:57:23.535Z,24.70
2022-09-02T15:59:51.409Z,24.70
2022-09-02T16:02:18.326Z,24.70
2022-09-02T16:04:45.118Z,24.70
2022-09-02T16:07:15.345Z,24.70
2022-09-02T16:09:44.149Z,24.70
2022-09-02T16:12:11.219Z,24.70
2022-09-02T16:14:38.033Z,24.70
2022-09-02T16:17:05.040Z,24.60
2022-09-02T16:19:31.976Z,24.60
2022-09-02T16:21:58.970Z,24.60
2022-09-02T16:24:25.859Z,24.60
2022-09-02T16:26:52.633Z,24.60
2022-09-02T16:29:19.682Z,24.60
2022-09-02T16:32:02.270Z,24.50
2022-09-02T16:34:34.944Z,24.60
2022-09-02T16:37:01.759Z,24.50
2022-09-02T16:39:28.654Z,24.50
2022-09-02T16:41:55.609Z,24.50
2022-09-02T16:44:25.713Z,24.50
2022-09-02T16:46:53.676Z,24.40
2022-09-02T16:49:22.171Z,24.40
2022-09-02T16:51:50.812Z,24.40
2022-09-02T16:54:31.256Z,24.40
2022-09-02T16:57:00.244Z,24.30
2022-09-02T16:59:27.629Z,24.30
2022-09-02T17:01:54.764Z,24.30
2022-09-02T17:04:21.590Z,24.30
2022-09-02T17:06:48.708Z,24.30
2022-09-02T17:09:16.481Z,24.30
2022-09-02T17:11:45.418Z,24.20
2022-09-02T17:14:17.485Z,24.20
2022-09-02T17:16:47.186Z,24.20
2022-09-02T17:19:17.092Z,24.20
2022-09-02T17:21:47.070Z,24.20
2022-09-02T17:24:15.235Z,24.10
2022-09-02T17:26:44.296Z,24.10
2022-09-02T17:29:31.947Z,24.10
2022-09-02T17:32:03.950Z,24.10
2022-09-02T17:34:33.300Z,24.10
2022-09-02T17:37:00.380Z,24.10
2022-09-02T17:39:27.437Z,24.10
2022-09-02T17:41:54.400Z,24.10
2022-09-02T17:44:23.119Z,24.00
2022-09-02T17:46:51.116Z,24.00
2022-09-02T17:49:18.534Z,24.00
2022-09-02T17:51:46.636Z,23.90
2022-09-02T17:54:14.941Z,23.90
2022-09-02T17:57:02.029Z,23.90
2022-09-02T18:00:01.310Z,23.70
2022-09-02T18:02:37.577Z,23.70
2022-09-02T18:05:29.141Z,23.70
2022-09-02T18:08:24.217Z,23.60
2022-09-02T18:10:58.087Z,23.60
2022-09-02T18:13:39.793Z,23.50
2022-09-02T18:16:51.450Z,23.50
2022-09-02T18:19:45.910Z,23.50
2022-09-02T18:22:32.620Z,23.40
2022-09-02T18:25:31.892Z,23.30
2022-09-02T18:28:31.531Z,23.20
2022-09-02T18:31:07.426Z,23.20
2022-09-02T18:33:54.852Z,23.10
2022-09-02T18:36:42.618Z,23.10
2022-09-02T18:39:12.247Z,23.10
2022-09-02T18:42:17.656Z,23.00
2022-09-02T18:44:59.681Z,23.00
2022-09-02T18:47:52.838Z,22.90
2022-09-02T18:53:18.591Z,22.80
2022-09-02T18:55:47.616Z,22.70
2022-09-02T18:58:34.390Z,22.60
2022-09-02T19:01:08.226Z,22.60
2022-09-02T19:03:36.959Z,22.50
2022-09-02T19:06:16.232Z,22.50
2022-09-02T19:08:45.418Z,22.50
2022-09-02T19:11:17.961Z,22.50
2022-09-02T19:13:52.752Z,22.50
2022-09-02T19:16:27.963Z,22.50
2022-09-02T19:18:55.105Z,22.50
2022-09-02T19:21:27.731Z,22.50
2022-09-02T19:23:54.851Z,22.40
2022-09-02T19:26:23.439Z,22.40
2022-09-02T19:28:51.732Z,22.40
2022-09-02T19:31:24.382Z,22.40
2022-09-02T19:33:56.652Z,22.40
2022-09-02T19:36:26.487Z,22.40
2022-09-02T19:38:58.496Z,22.40
2022-09-02T19:41:27.654Z,22.30
2022-09-02T19:43:55.028Z,22.30
2022-09-02T19:46:56.100Z,22.30
2022-09-02T19:49:09.860Z,22.30
2022-09-02T19:51:36.723Z,22.20
2022-09-02T19:54:03.937Z,22.20
2022-09-02T19:59:24.403Z,22.20
2022-09-02T20:01:51.235Z,22.20
2022-09-02T20:04:18.754Z,22.10
2022-09-02T20:06:45.606Z,22.00
2022-09-02T20:09:12.739Z,22.00
2022-09-02T20:11:41.094Z,22.00
2022-09-02T20:14:26.746Z,22.00
2022-09-02T20:16:56.783Z,22.00
2022-09-02T20:19:23.912Z,21.90
2022-09-02T20:21:53.901Z,21.90
2022-09-02T20:24:36.324Z,21.80
2022-09-02T20:27:35.370Z,21.80
2022-09-02T20:30:13.177Z,21.70
2022-09-02T20:32:58.545Z,21.70
2022-09-02T20:35:47.268Z,21.60
2022-09-02T20:38:19.869Z,21.70
2022-09-02T20:41:08.503Z,21.70
2022-09-02T20:43:53.658Z,21.70
2022-09-02T20:46:30.312Z,21.70
2022-09-02T20:49:08.837Z,21.80
2022-09-02T20:52:00.939Z,21.70
2022-09-02T20:54:35.413Z,21.70
2022-09-02T20:57:21.013Z,21.70
2022-09-02T21:00:02.329Z,21.70
2022-09-02T21:02:35.094Z,21.60
2022-09-02T21:05:39.912Z,21.60
2022-09-02T21:08:24.512Z,21.60
2022-09-02T21:11:00.703Z,21.50
2022-09-02T21:13:42.464Z,21.50
2022-09-02T21:16:37.321Z,21.50
2022-09-02T21:19:44.591Z,21.50
2022-09-02T21:22:25.279Z,21.40
2022-09-02T21:24:57.829Z,21.40
2022-09-02T21:27:45.499Z,21.40
2022-09-02T21:30:18.085Z,21.40
2022-09-02T21:33:01.891Z,21.40
2022-09-02T21:35:37.257Z,21.30
2022-09-02T21:38:10.389Z,21.40
2022-09-02T21:40:58.462Z,21.40
2022-09-02T21:43:45.771Z,21.30
2022-09-02T21:46:21.492Z,21.30
2022-09-02T21:49:12.811Z,21.30
2022-09-02T21:51:45.359Z,21.30
2022-09-02T21:54:25.088Z,21.30
2022-09-02T21:57:19.101Z,21.30
2022-09-02T22:00:08.738Z,21.30
2022-09-02T22:02:41.407Z,21.20
2022-09-02T22:05:13.708Z,21.20
2022-09-02T22:08:11.176Z,21.20
2022-09-02T22:10:41.808Z,21.20
2022-09-02T22:13:09.040Z,21.30
2022-09-02T22:16:01.293Z,21.20
2022-09-02T22:18:52.256Z,21.20
2022-09-02T22:21:48.434Z,21.30
2022-09-02T22:24:29.130Z,21.30
2022-09-02T22:27:04.919Z,21.40
2022-09-02T22:30:04.150Z,21.40
2022-09-02T22:32:37.442Z,21.50
2022-09-02T22:35:15.304Z,21.60
2022-09-02T22:38:03.406Z,21.50
2022-09-02T22:40:36.244Z,21.50
2022-09-02T22:43:07.579Z,21.50
2022-09-02T22:45:57.414Z,21.40
2022-09-02T22:48:52.235Z,21.40
2022-09-02T22:52:01.595Z,21.40
2022-09-02T22:54:29.191Z,21.50
2022-09-02T22:57:19.251Z,21.50
2022-09-02T23:00:09.212Z,21.40
2022-09-02T23:03:06.738Z,21.30
2022-09-02T23:05:45.397Z,21.30
2022-09-02T23:08:14.426Z,21.20
2022-09-02T23:10:53.494Z,21.20
2022-09-02T23:13:31.044Z,21.20
2022-09-02T23:16:12.032Z,21.10
2022-09-02T23:18:42.120Z,21.10
2022-09-02T23:21:32.809Z,21.10
2022-09-02T23:24:09.326Z,21.10
2022-09-02T23:26:36.142Z,21.10
2022-09-02T23:29:28.716Z,21.10
2022-09-02T23:32:07.776Z,21.20
2022-09-02T23:34:40.582Z,21.10
2022-09-02T23:37:26.885Z,21.30
2022-09-02T23:40:13.761Z,21.30
2022-09-02T23:42:40.524Z,21.30
2022-09-02T23:45:21.891Z,21.20
2022-09-02T23:47:54.787Z,21.20
2022-09-02T23:50:25.870Z,21.20
2022-09-02T23:52:58.844Z,21.20
2022-09-02T23:55:59.582Z,21.30
2022-09-02T23:58:45.085Z,21.20
